Aeroporto :







RITROVATECI SU...

 
LOGIN :

Iscrizione | Disclaimer

   EN    FR    IT 

 









Sommario :    VFR   VFR Marginale   IFR   IFR Intensivo   IFR Molto Intensivo
Visibilità : 
Base nubi : 
>= 8 km
>= 3000ft
5 / 8 km
1000 / 3000 ft
1500m / 5 km
500 / 1000 ft
800 / 1500m
200 / 500 ft
< 800m
< 200 ft
Simboli :   Temporali  Nebbia  Neve Forte  Precipitazioni Forti  Vento > 20 kt






- Altitudine del aeroporto : 1074 ft


KHIE - Mount Washington Regional

ULTIMO METAR :
  • 090152Z AUTO 00000KT 10SM OVC040 M06/M08 A3018 RMK AO2 SLP244 T10561078

METARs OBSOLETI :
  • 090052Z AUTO 00000KT 10SM SCT043 SCT120 M07/M09 A3017 RMK AO2 SLP246 T10721089
  • 082352Z AUTO 00000KT 10SM SCT041 M09/M11 A3021 RMK AO2 SLP259 T10891106 11033 21094 55014

TAF KHIE
Valido dal 09 a 00 ore il 10 a 00 ore UTC


082333Z 0900/0924 VRB03KT P6SM OVC120 WS020/22040KT
FM090600 VRB03KT P6SM OVC035 WS020/22045KT
FM091300 15005KT 5SM -RA BR OVC025 WS020/21040KT
FM091800 12006KT 3SM -RA BR OVC015



MetMap, La meteo Aeronautica in un colpo d'occhio ! - Copyright ORBIFLY Dicembre 2007 - Disclaimer

ORBIFLY MET'MAP TEAM :

Programmazione e sviluppo : Alexandra Zaïnal
Concezione : Baudouin d'Aumeries
Aiuto per la programmazione : Marc-Olivier Méhu
Supporto tecnico e logistico : Manuel Goepfert
Aiuto per la traduzione : Arnaldo La Scala

Contatto : metmap@orbifly.com




FONTI E CREDITI :

   NOAA